createdAt,value
2017-01-03T00:00:48.904Z,21.85
2017-01-03T00:01:57.893Z,21.9
2017-01-03T00:03:06.887Z,21.86
2017-01-03T00:04:15.923Z,21.9
2017-01-03T00:05:25.131Z,21.9
2017-01-03T00:06:34.105Z,21.92
2017-01-03T00:07:43.124Z,21.85
2017-01-03T00:08:52.107Z,21.43
2017-01-03T00:10:01.089Z,21.25
2017-01-03T00:11:10.071Z,20.94
2017-01-03T00:12:19.039Z,20.63
2017-01-03T00:13:28.026Z,20.46
2017-01-03T00:14:37.007Z,20.17
2017-01-03T00:15:46.006Z,20.07
2017-01-03T00:16:55.394Z,19.85
2017-01-03T00:18:04.382Z,19.79
2017-01-03T00:19:13.360Z,19.54
2017-01-03T00:20:22.341Z,19.54
2017-01-03T00:21:31.316Z,19.36
2017-01-03T00:22:40.296Z,19.15
2017-01-03T00:23:49.322Z,19.09
2017-01-03T00:24:58.319Z,19.02
2017-01-03T00:26:07.304Z,18.94
2017-01-03T00:27:16.275Z,18.8
2017-01-03T00:28:25.265Z,18.65
2017-01-03T00:29:34.254Z,18.46
2017-01-03T00:30:43.234Z,18.46
2017-01-03T00:31:52.211Z,18.42
2017-01-03T00:33:01.181Z,18.43
2017-01-03T00:34:10.156Z,18.32
2017-01-03T00:35:19.142Z,18.17
2017-01-03T00:36:28.156Z,18.02
2017-01-03T00:37:37.120Z,17.84
2017-01-03T00:38:46.092Z,17.86
2017-01-03T00:39:55.075Z,17.84
2017-01-03T00:41:04.056Z,17.85
2017-01-03T00:42:13.046Z,17.66
2017-01-03T00:43:22.020Z,17.58
2017-01-03T00:44:30.989Z,17.5
2017-01-03T00:45:39.957Z,17.44
2017-01-03T00:46:48.932Z,17.3
2017-01-03T00:47:57.916Z,17.36
2017-01-03T00:49:06.889Z,17.23
2017-01-03T00:50:15.886Z,17.11
2017-01-03T00:51:24.864Z,17.03
2017-01-03T00:52:33.856Z,17.05
2017-01-03T00:53:42.846Z,17.02
2017-01-03T00:54:51.818Z,16.99
2017-01-03T00:56:00.821Z,16.87
2017-01-03T00:57:09.804Z,16.8
2017-01-03T00:58:18.783Z,16.75
2017-01-03T00:59:27.760Z,16.63
2017-01-03T01:00:36.738Z,16.58
2017-01-03T01:01:45.700Z,16.58
2017-01-03T01:02:54.678Z,16.62
2017-01-03T01:04:03.660Z,16.47
2017-01-03T01:05:12.651Z,16.5
2017-01-03T01:06:21.622Z,16.48
2017-01-03T01:07:30.592Z,16.34
2017-01-03T01:08:39.576Z,16.22
2017-01-03T01:09:48.558Z,16.2
2017-01-03T01:10:57.571Z,16.17
2017-01-03T01:12:06.538Z,16.25
2017-01-03T01:13:15.515Z,16.2
2017-01-03T01:14:24.489Z,16.03
2017-01-03T01:15:33.478Z,16.17
2017-01-03T01:16:42.457Z,16.03
2017-01-03T01:17:51.441Z,16.03
2017-01-03T01:19:00.418Z,16.14
2017-01-03T01:20:09.395Z,16.04
2017-01-03T01:21:18.369Z,16.18
2017-01-03T01:22:27.345Z,16.11
2017-01-03T01:23:36.322Z,16.04
2017-01-03T01:24:45.289Z,16.14
2017-01-03T01:25:54.263Z,16.11
2017-01-03T01:27:03.230Z,16.27
2017-01-03T01:28:12.216Z,16.27
2017-01-03T01:29:21.215Z,16.22
2017-01-03T01:30:30.192Z,16.18
2017-01-03T01:31:39.160Z,16.18
2017-01-03T01:32:48.145Z,16.15
2017-01-03T01:33:57.138Z,16.23
2017-01-03T01:35:06.108Z,16.14
2017-01-03T01:36:15.077Z,16.15
2017-01-03T01:37:24.057Z,16.2
2017-01-03T01:38:33.030Z,16.14
2017-01-03T01:39:42.011Z,15.89
2017-01-03T01:40:50.989Z,16.04
2017-01-03T01:41:59.967Z,16.03
2017-01-03T01:43:09.053Z,15.88
2017-01-03T01:44:18.026Z,15.86
2017-01-03T01:45:26.998Z,15.85
2017-01-03T01:46:36.000Z,15.73
2017-01-03T01:47:44.989Z,15.71
2017-01-03T01:48:53.964Z,15.81
2017-01-03T01:50:02.930Z,15.67
2017-01-03T01:51:11.920Z,15.64
2017-01-03T01:52:20.900Z,15.52
2017-01-03T01:53:29.878Z,15.49
2017-01-03T01:54:38.845Z,15.6
2017-01-03T01:55:47.822Z,15.53
2017-01-03T01:56:56.791Z,15.55
2017-01-03T01:58:05.782Z,15.51
2017-01-03T01:59:14.770Z,15.46
2017-01-03T02:00:23.739Z,15.31
2017-01-03T02:01:32.713Z,15.42
2017-01-03T02:02:41.701Z,15.36
2017-01-03T02:03:50.676Z,15.3
2017-01-03T02:04:59.646Z,15.27
2017-01-03T02:06:08.636Z,15.24
2017-01-03T02:07:17.614Z,15.12
2017-01-03T02:08:26.582Z,15.15
2017-01-03T02:09:35.558Z,15.16
2017-01-03T02:10:44.526Z,15.12
2017-01-03T02:11:53.517Z,15.09
2017-01-03T02:13:02.486Z,15.08
2017-01-03T02:14:11.461Z,15.12
2017-01-03T02:15:20.433Z,14.87
2017-01-03T02:16:29.415Z,15
2017-01-03T02:17:38.389Z,15.11
2017-01-03T02:18:47.364Z,15.05
2017-01-03T02:19:56.350Z,15.06
2017-01-03T02:21:05.317Z,15.05
2017-01-03T02:22:14.293Z,15.11
2017-01-03T02:23:23.263Z,15.09
2017-01-03T02:24:32.229Z,15.12
2017-01-03T02:25:42.128Z,15.15
2017-01-03T02:26:51.116Z,15.15
2017-01-03T02:28:00.080Z,15.15
2017-01-03T02:29:09.042Z,15.13
2017-01-03T02:30:18.041Z,15.09
2017-01-03T02:31:27.013Z,15.15
2017-01-03T02:32:36.007Z,15.21
2017-01-03T02:33:44.978Z,15.08
2017-01-03T02:34:53.946Z,15.05
2017-01-03T02:36:02.919Z,15.09
2017-01-03T02:37:11.899Z,15
2017-01-03T02:38:20.893Z,15.01
2017-01-03T02:39:29.873Z,15.05
2017-01-03T02:40:38.861Z,14.98
2017-01-03T02:41:47.822Z,15
2017-01-03T02:42:56.804Z,14.88
2017-01-03T02:44:05.789Z,14.91
2017-01-03T02:45:14.760Z,14.91
2017-01-03T02:46:23.728Z,14.9
2017-01-03T02:47:32.705Z,14.87
2017-01-03T02:48:41.679Z,14.9
2017-01-03T02:49:50.644Z,14.8
2017-01-03T02:50:59.634Z,14.82
2017-01-03T02:52:08.616Z,14.67
2017-01-03T02:53:17.593Z,14.68
2017-01-03T02:54:26.579Z,14.74
2017-01-03T02:55:35.551Z,14.78
2017-01-03T02:56:44.518Z,14.84
2017-01-03T02:57:53.491Z,14.82
2017-01-03T02:59:02.463Z,14.82
2017-01-03T03:00:11.444Z,14.8
2017-01-03T03:01:20.431Z,14.8
2017-01-03T03:02:29.405Z,14.75
2017-01-03T03:03:38.427Z,14.67
2017-01-03T03:04:47.407Z,14.82
2017-01-03T03:05:56.389Z,14.82
2017-01-03T03:07:05.386Z,14.86
2017-01-03T03:08:14.366Z,14.93
2017-01-03T03:09:23.336Z,14.8
2017-01-03T03:10:32.296Z,14.86
2017-01-03T03:11:41.284Z,14.86
2017-01-03T03:12:50.270Z,14.94
2017-01-03T03:13:59.234Z,14.86
2017-01-03T03:15:08.207Z,14.82
2017-01-03T03:16:17.173Z,14.82
2017-01-03T03:17:26.148Z,14.9
2017-01-03T03:18:35.126Z,14.82
2017-01-03T03:19:44.118Z,14.82
2017-01-03T03:20:53.086Z,14.75
2017-01-03T03:22:02.070Z,14.78
2017-01-03T03:23:11.036Z,14.78
2017-01-03T03:24:20.015Z,14.82
2017-01-03T03:25:28.991Z,14.78
2017-01-03T03:26:37.960Z,14.72
2017-01-03T03:27:46.928Z,14.68
2017-01-03T03:28:55.907Z,14.67
2017-01-03T03:30:04.870Z,14.72
2017-01-03T03:31:13.843Z,14.71
2017-01-03T03:32:22.875Z,14.71
2017-01-03T03:33:31.866Z,14.7
2017-01-03T03:34:40.827Z,14.57
2017-01-03T03:35:49.813Z,14.62
2017-01-03T03:36:58.780Z,14.56
2017-01-03T03:38:07.757Z,14.68
2017-01-03T03:39:16.735Z,14.46
2017-01-03T03:40:25.721Z,14.59
2017-01-03T03:41:34.692Z,14.6
2017-01-03T03:42:43.689Z,14.59
2017-01-03T03:43:52.676Z,14.52
2017-01-03T03:45:01.649Z,14.63
2017-01-03T03:46:10.661Z,14.52
2017-01-03T03:47:19.631Z,14.47
2017-01-03T03:48:28.614Z,14.47
2017-01-03T03:49:37.590Z,14.49
2017-01-03T03:50:46.576Z,14.47
2017-01-03T03:51:55.538Z,14.47
2017-01-03T03:53:04.515Z,14.39
2017-01-03T03:54:13.502Z,14.38
2017-01-03T03:55:22.470Z,14.3
2017-01-03T03:56:31.446Z,14.41
2017-01-03T03:57:40.410Z,14.42
2017-01-03T03:58:49.381Z,14.31
2017-01-03T03:59:58.353Z,14.31
2017-01-03T04:01:07.331Z,14.28
2017-01-03T04:02:16.313Z,14.13
2017-01-03T04:03:25.279Z,14.2
2017-01-03T04:04:34.264Z,14.22
2017-01-03T04:05:43.236Z,14.32
2017-01-03T04:06:52.221Z,14.26
2017-01-03T04:08:01.227Z,14.28
2017-01-03T04:09:10.203Z,14.22
2017-01-03T04:10:19.173Z,14.14
2017-01-03T04:11:28.154Z,14.2
2017-01-03T04:12:37.134Z,14.32
2017-01-03T04:13:46.111Z,14.3
2017-01-03T04:14:55.085Z,14.2
2017-01-03T04:16:04.091Z,14.2
2017-01-03T04:17:13.091Z,14.1
2017-01-03T04:18:22.066Z,14.1
2017-01-03T04:19:31.046Z,14.14
2017-01-03T04:20:40.047Z,14.24
2017-01-03T04:21:49.030Z,14.2
2017-01-03T04:22:58.011Z,14.2
2017-01-03T04:24:06.975Z,14.22
2017-01-03T04:25:15.964Z,14.3
2017-01-03T04:26:24.943Z,14.28
2017-01-03T04:27:33.918Z,14.1
2017-01-03T04:28:42.890Z,14.12
2017-01-03T04:29:51.871Z,14.09
2017-01-03T04:31:00.843Z,14.02
2017-01-03T04:32:09.819Z,13.99
2017-01-03T04:33:18.811Z,14.02
2017-01-03T04:34:27.814Z,14.13
2017-01-03T04:35:36.799Z,14.09
2017-01-03T04:36:45.771Z,14.1
2017-01-03T04:37:54.735Z,14.09
2017-01-03T04:39:03.708Z,13.98
2017-01-03T04:40:12.683Z,13.94
2017-01-03T04:41:21.687Z,14.05
2017-01-03T04:42:31.664Z,14.09
2017-01-03T04:43:40.676Z,13.99
2017-01-03T04:44:49.643Z,14.1
2017-01-03T04:45:58.627Z,14.1
2017-01-03T04:47:07.673Z,14.01
2017-01-03T04:48:16.639Z,13.94
2017-01-03T04:49:25.644Z,14.01
2017-01-03T04:50:34.617Z,13.92
2017-01-03T04:51:43.600Z,14.01
2017-01-03T04:52:52.565Z,13.97
2017-01-03T04:54:01.570Z,13.99
2017-01-03T04:55:10.537Z,13.95
2017-01-03T04:56:19.519Z,14.02
2017-01-03T04:57:28.500Z,14.05
2017-01-03T04:58:37.470Z,13.94
2017-01-03T04:59:46.452Z,13.92
2017-01-03T05:00:55.434Z,14.02
2017-01-03T05:02:04.411Z,13.99
2017-01-03T05:03:13.398Z,13.95
2017-01-03T05:04:22.380Z,13.95
2017-01-03T05:05:31.354Z,13.87
2017-01-03T05:06:40.327Z,13.97
2017-01-03T05:07:49.305Z,13.99
2017-01-03T05:08:58.267Z,13.97
2017-01-03T05:10:07.251Z,13.84
2017-01-03T05:11:16.227Z,13.95
2017-01-03T05:12:25.201Z,13.79
2017-01-03T05:13:34.211Z,13.83
2017-01-03T05:14:43.184Z,13.79
2017-01-03T05:15:52.164Z,13.87
2017-01-03T05:17:01.148Z,13.76
2017-01-03T05:18:10.112Z,13.8
2017-01-03T05:19:19.086Z,13.83
2017-01-03T05:20:28.063Z,13.83
2017-01-03T05:21:37.033Z,13.69
2017-01-03T05:22:46.007Z,13.74
2017-01-03T05:23:54.978Z,13.69
2017-01-03T05:25:03.960Z,13.72
2017-01-03T05:26:12.937Z,13.64
2017-01-03T05:27:21.911Z,13.58
2017-01-03T05:28:30.877Z,13.65
2017-01-03T05:29:39.854Z,13.59
2017-01-03T05:30:48.828Z,13.56
2017-01-03T05:31:57.796Z,13.61
2017-01-03T05:33:06.769Z,13.54
2017-01-03T05:34:15.747Z,13.59
2017-01-03T05:35:24.718Z,13.69
2017-01-03T05:36:33.705Z,13.72
2017-01-03T05:37:42.687Z,13.73
2017-01-03T05:38:51.670Z,13.65
2017-01-03T05:40:00.633Z,13.68
2017-01-03T05:41:09.617Z,13.58
2017-01-03T05:42:18.584Z,13.55
2017-01-03T05:43:27.577Z,13.56
2017-01-03T05:44:36.582Z,13.55
2017-01-03T05:45:45.550Z,13.62
2017-01-03T05:46:54.520Z,13.41
2017-01-03T05:48:03.499Z,13.61
2017-01-03T05:49:12.482Z,13.58
2017-01-03T05:50:21.450Z,13.44
2017-01-03T05:51:30.420Z,13.56
2017-01-03T05:52:39.382Z,13.55
2017-01-03T05:53:48.360Z,13.5
2017-01-03T05:54:57.343Z,13.54
2017-01-03T05:56:06.323Z,13.51
2017-01-03T05:57:15.296Z,13.55
2017-01-03T05:58:24.272Z,13.54
2017-01-03T05:59:33.244Z,13.47
2017-01-03T06:00:42.208Z,13.59
2017-01-03T06:01:51.195Z,13.54
2017-01-03T06:03:00.156Z,13.54
2017-01-03T06:04:09.139Z,13.49
2017-01-03T06:05:18.123Z,13.46
2017-01-03T06:06:27.105Z,13.5
2017-01-03T06:07:36.076Z,13.5
2017-01-03T06:08:45.045Z,13.4
2017-01-03T06:09:54.438Z,13.39
2017-01-03T06:11:03.402Z,13.5
2017-01-03T06:12:12.394Z,13.41
2017-01-03T06:13:21.365Z,13.47
2017-01-03T06:14:30.336Z,13.47
2017-01-03T06:15:39.317Z,13.39
2017-01-03T06:16:48.294Z,13.27
2017-01-03T06:17:57.266Z,13.37
2017-01-03T06:19:06.268Z,13.39
2017-01-03T06:20:15.243Z,13.32
2017-01-03T06:21:24.242Z,13.4
2017-01-03T06:22:33.226Z,13.25
2017-01-03T06:23:42.320Z,13.27
2017-01-03T06:24:51.287Z,13.31
2017-01-03T06:26:00.256Z,13.36
2017-01-03T06:27:09.236Z,13.41
2017-01-03T06:28:18.212Z,13.3
2017-01-03T06:29:27.182Z,13.31
2017-01-03T06:30:36.165Z,13.39
2017-01-03T06:31:45.135Z,13.31
2017-01-03T06:32:54.113Z,13.3
2017-01-03T06:34:03.088Z,13.36
2017-01-03T06:35:12.056Z,13.25
2017-01-03T06:36:21.041Z,13.39
2017-01-03T06:37:30.011Z,13.36
2017-01-03T06:38:38.996Z,13.31
2017-01-03T06:39:47.967Z,13.23
2017-01-03T06:40:56.947Z,13.27
2017-01-03T06:42:05.916Z,13.3
2017-01-03T06:43:14.913Z,13.28
2017-01-03T06:44:23.888Z,13.24
2017-01-03T06:45:32.871Z,13.23
2017-01-03T06:46:41.857Z,13.12
2017-01-03T06:47:50.842Z,13.1
2017-01-03T06:48:59.815Z,13.28
2017-01-03T06:50:08.791Z,13.24
2017-01-03T06:51:17.778Z,13.21
2017-01-03T06:52:26.741Z,13.05
2017-01-03T06:53:35.706Z,13.21
2017-01-03T06:54:44.679Z,13.03
2017-01-03T06:55:53.663Z,13.27
2017-01-03T06:57:02.672Z,13.18
2017-01-03T06:58:11.637Z,13.12
2017-01-03T06:59:20.613Z,13.09
2017-01-03T07:00:29.582Z,13.07
2017-01-03T07:01:38.559Z,13.1
2017-01-03T07:02:47.534Z,13.1
2017-01-03T07:03:56.549Z,13.07
2017-01-03T07:05:05.530Z,13.27
2017-01-03T07:06:14.495Z,13.27
2017-01-03T07:07:23.472Z,13.31
2017-01-03T07:08:32.454Z,13.21
2017-01-03T07:09:41.431Z,13.23
2017-01-03T07:10:50.415Z,13.25
2017-01-03T07:11:59.391Z,13.31
2017-01-03T07:13:08.399Z,13.15
2017-01-03T07:14:17.389Z,13.24
2017-01-03T07:15:26.347Z,13.15
2017-01-03T07:16:35.336Z,13.23
2017-01-03T07:17:44.297Z,13.31
2017-01-03T07:18:53.281Z,13.24
2017-01-03T07:20:02.257Z,13.17
2017-01-03T07:21:11.247Z,13.18
2017-01-03T07:22:20.235Z,13.21
2017-01-03T07:23:29.205Z,13.06
2017-01-03T07:24:38.180Z,13.17
2017-01-03T07:25:47.145Z,13.18
2017-01-03T07:26:56.137Z,13.24
2017-01-03T07:28:05.134Z,13.12
2017-01-03T07:29:14.102Z,13.12
2017-01-03T07:30:23.081Z,13.07
2017-01-03T07:31:32.056Z,13.05
2017-01-03T07:32:41.031Z,13.05
2017-01-03T07:33:49.997Z,13.1
2017-01-03T07:34:58.975Z,13.09
2017-01-03T07:36:07.951Z,13.05
2017-01-03T07:37:16.928Z,13.05
2017-01-03T07:38:25.901Z,13.06
2017-01-03T07:39:34.868Z,13.1
2017-01-03T07:40:43.855Z,13.07
2017-01-03T07:41:52.847Z,13.12
2017-01-03T07:43:01.819Z,13
2017-01-03T07:44:10.782Z,13.02
2017-01-03T07:45:19.761Z,12.87
2017-01-03T07:46:28.731Z,13
2017-01-03T07:47:37.721Z,13.06
2017-01-03T07:48:46.707Z,13
2017-01-03T07:49:55.676Z,12.95
2017-01-03T07:51:04.649Z,12.9
2017-01-03T07:52:13.629Z,13.06
2017-01-03T07:53:22.601Z,13.09
2017-01-03T07:54:31.587Z,13
2017-01-03T07:55:40.568Z,13.02
2017-01-03T07:56:49.544Z,12.94
2017-01-03T07:57:58.513Z,13.03
2017-01-03T07:59:07.516Z,13
2017-01-03T08:00:16.497Z,12.82
2017-01-03T08:01:25.475Z,12.98
2017-01-03T08:02:34.449Z,12.98
2017-01-03T08:03:43.417Z,12.95
2017-01-03T08:04:52.420Z,12.92
2017-01-03T08:06:01.408Z,12.92
2017-01-03T08:07:10.389Z,12.94
2017-01-03T08:08:19.358Z,12.87
2017-01-03T08:09:28.327Z,12.92
2017-01-03T08:10:37.294Z,12.98
2017-01-03T08:11:46.270Z,12.9
2017-01-03T08:12:55.245Z,13.1
2017-01-03T08:14:04.252Z,13.39
2017-01-03T08:15:13.231Z,13.77
2017-01-03T08:16:22.216Z,13.98
2017-01-03T08:17:31.184Z,14.09
2017-01-03T08:18:40.145Z,14.28
2017-01-03T08:19:49.123Z,14.35
2017-01-03T08:20:58.096Z,14.42
2017-01-03T08:22:07.086Z,14.62
2017-01-03T08:23:16.058Z,14.59
2017-01-03T08:24:25.031Z,14.68
2017-01-03T08:25:33.986Z,14.82
2017-01-03T08:26:43.373Z,14.9
2017-01-03T08:27:52.353Z,14.98
2017-01-03T08:29:01.330Z,15.06
2017-01-03T08:30:10.308Z,15.15
2017-01-03T08:31:19.281Z,15.09
2017-01-03T08:32:28.266Z,15.12
2017-01-03T08:33:37.251Z,15.21
2017-01-03T08:34:46.217Z,15.24
2017-01-03T08:35:55.193Z,15.27
2017-01-03T08:37:04.183Z,15.41
2017-01-03T08:38:13.169Z,15.45
2017-01-03T08:39:22.145Z,15.42
2017-01-03T08:40:31.127Z,15.48
2017-01-03T08:41:40.100Z,15.59
2017-01-03T08:42:49.077Z,15.66
2017-01-03T08:43:58.052Z,15.67
2017-01-03T08:45:07.027Z,15.59
2017-01-03T08:46:15.993Z,15.66
2017-01-03T08:47:24.964Z,15.64
2017-01-03T08:48:33.951Z,15.79
2017-01-03T08:49:42.920Z,15.88
2017-01-03T08:50:51.888Z,16.01
2017-01-03T08:52:00.865Z,15.99
2017-01-03T08:53:09.838Z,16.04
2017-01-03T08:54:18.806Z,16.14
2017-01-03T08:55:27.795Z,16.22
2017-01-03T08:56:36.779Z,16.17
2017-01-03T08:57:45.741Z,16.34
2017-01-03T08:58:54.716Z,16.3
2017-01-03T09:00:03.685Z,16.26
2017-01-03T09:01:12.672Z,16.42
2017-01-03T09:02:22.751Z,16.34
2017-01-03T09:03:31.730Z,16.41
2017-01-03T09:04:40.692Z,16.41
2017-01-03T09:05:49.665Z,16.6
2017-01-03T09:06:59.024Z,16.48
2017-01-03T09:08:08.112Z,16.59
2017-01-03T09:09:17.109Z,16.62
2017-01-03T09:10:26.074Z,16.73
2017-01-03T09:11:35.066Z,16.87
2017-01-03T09:12:44.045Z,16.9
2017-01-03T09:13:53.017Z,16.95
2017-01-03T09:15:01.989Z,16.9
2017-01-03T09:16:10.974Z,16.98
2017-01-03T09:17:19.952Z,17.1
2017-01-03T09:18:28.925Z,17.26
2017-01-03T09:19:37.900Z,17.35
2017-01-03T09:20:46.863Z,17.45
2017-01-03T09:21:55.853Z,17.73
2017-01-03T09:23:04.816Z,17.73
2017-01-03T09:24:13.841Z,17.92
2017-01-03T09:25:22.817Z,17.94
2017-01-03T09:26:31.798Z,18.07
2017-01-03T09:27:40.771Z,18.25
2017-01-03T09:28:49.766Z,18.24
2017-01-03T09:29:58.807Z,18.4
2017-01-03T09:31:07.809Z,18.5
2017-01-03T09:32:16.823Z,18.61
2017-01-03T09:33:25.789Z,18.69
2017-01-03T09:34:34.786Z,18.74
2017-01-03T09:35:43.776Z,18.87
2017-01-03T09:36:52.746Z,19.01
2017-01-03T09:38:01.740Z,18.79
2017-01-03T09:39:10.716Z,18.74
2017-01-03T09:40:19.708Z,18.62
2017-01-03T09:41:28.693Z,18.44
2017-01-03T09:42:37.704Z,18.44
2017-01-03T09:43:46.702Z,18.5
2017-01-03T09:44:55.679Z,18.44
2017-01-03T09:46:04.692Z,18.29
2017-01-03T09:47:13.669Z,18.35
2017-01-03T09:48:22.643Z,18.25
2017-01-03T09:49:31.615Z,18.21
2017-01-03T09:50:40.600Z,18.21
2017-01-03T09:51:49.817Z,18.17
2017-01-03T09:52:59.008Z,18.4
2017-01-03T09:54:07.984Z,18.34
2017-01-03T09:55:17.005Z,18.39
2017-01-03T09:56:25.992Z,18.36
2017-01-03T09:57:34.967Z,18.26
2017-01-03T09:58:43.943Z,17.79
2017-01-03T09:59:52.918Z,17.38
2017-01-03T10:01:01.908Z,17.06
2017-01-03T10:02:10.890Z,17.39
2017-01-03T10:03:19.875Z,17.58
2017-01-03T10:04:28.864Z,17.79
2017-01-03T10:05:37.833Z,17.96
2017-01-03T10:06:46.817Z,17.92
2017-01-03T10:07:55.780Z,17.98
2017-01-03T10:09:04.761Z,18.07
2017-01-03T10:10:13.747Z,18.04
2017-01-03T10:11:22.719Z,18.1
2017-01-03T10:12:31.697Z,18.13
2017-01-03T10:13:40.677Z,18.11
2017-01-03T10:14:49.647Z,18.11
2017-01-03T10:15:58.620Z,18.13
2017-01-03T10:17:07.654Z,18.21
2017-01-03T10:18:16.663Z,18.19
2017-01-03T10:19:25.652Z,18.61
2017-01-03T10:20:34.625Z,18.79
2017-01-03T10:21:43.613Z,19.05
2017-01-03T10:22:52.578Z,19.37
2017-01-03T10:24:01.554Z,19.45
2017-01-03T10:25:10.529Z,19.58
2017-01-03T10:26:19.493Z,19.67
2017-01-03T10:27:28.890Z,19.94
2017-01-03T10:28:37.871Z,19.94
2017-01-03T10:29:46.854Z,19.95
2017-01-03T10:30:55.832Z,20.19
2017-01-03T10:32:04.824Z,20.2
2017-01-03T10:33:13.800Z,19.92
2017-01-03T10:34:22.768Z,19.87
2017-01-03T10:35:31.753Z,19.77
2017-01-03T10:36:40.726Z,19.67
2017-01-03T10:37:49.712Z,19.57
2017-01-03T10:38:58.691Z,19.5
2017-01-03T10:40:07.666Z,19.46
2017-01-03T10:41:16.642Z,19.4
2017-01-03T10:42:25.645Z,19.28
2017-01-03T10:43:34.745Z,19.4
2017-01-03T10:44:43.727Z,19.3
2017-01-03T10:45:52.720Z,19.35
2017-01-03T10:47:01.691Z,19.37
2017-01-03T10:48:10.691Z,19.28
2017-01-03T10:49:19.774Z,19.32
2017-01-03T10:50:28.749Z,19.37
2017-01-03T10:51:37.736Z,19.36
2017-01-03T10:52:46.717Z,19.37
2017-01-03T10:53:55.699Z,19.36
2017-01-03T10:55:04.679Z,19.39
2017-01-03T10:56:13.657Z,19.4
2017-01-03T10:57:22.634Z,19.35
2017-01-03T10:58:31.633Z,19.39
2017-01-03T10:59:40.622Z,19.47
2017-01-03T11:00:49.596Z,19.45
2017-01-03T11:01:58.578Z,19.43
2017-01-03T11:03:07.548Z,19.43
2017-01-03T11:04:16.535Z,19.43
2017-01-03T11:05:25.499Z,19.46
2017-01-03T11:06:34.545Z,19.47
2017-01-03T11:07:43.525Z,19.43
2017-01-03T11:08:52.497Z,19.57
2017-01-03T11:10:01.468Z,19.62
2017-01-03T11:11:10.453Z,19.57
2017-01-03T11:12:19.433Z,19.57
2017-01-03T11:13:28.408Z,19.53
2017-01-03T11:14:37.387Z,19.57
2017-01-03T11:15:46.362Z,19.57
2017-01-03T11:16:55.350Z,19.6
2017-01-03T11:18:04.348Z,19.47
2017-01-03T11:19:13.331Z,19.6
2017-01-03T11:20:22.309Z,19.58
2017-01-03T11:21:31.301Z,19.58
2017-01-03T11:22:40.265Z,19.64
2017-01-03T11:23:49.246Z,19.65
2017-01-03T11:24:58.242Z,19.65
2017-01-03T11:26:07.215Z,19.73
2017-01-03T11:27:16.196Z,19.64
2017-01-03T11:28:25.180Z,19.69
2017-01-03T11:29:34.168Z,19.75
2017-01-03T11:30:43.142Z,19.79
2017-01-03T11:31:52.130Z,19.76
2017-01-03T11:33:01.117Z,19.72
2017-01-03T11:34:10.104Z,19.76
2017-01-03T11:35:19.095Z,19.87
2017-01-03T11:36:28.066Z,19.77
2017-01-03T11:37:37.080Z,19.94
2017-01-03T11:38:46.071Z,19.95
2017-01-03T11:39:55.043Z,19.76
2017-01-03T11:41:04.017Z,19.88
2017-01-03T11:42:13.035Z,19.92
2017-01-03T11:43:21.999Z,19.87
2017-01-03T11:44:30.985Z,19.9
2017-01-03T11:45:39.999Z,19.92
2017-01-03T11:46:49.074Z,19.95
2017-01-03T11:47:58.042Z,19.87
2017-01-03T11:49:07.033Z,19.87
2017-01-03T11:50:16.008Z,19.91
2017-01-03T11:51:24.998Z,19.88
2017-01-03T11:52:33.979Z,19.95
2017-01-03T11:53:42.961Z,19.87
2017-01-03T11:54:51.950Z,19.95
2017-01-03T11:56:00.983Z,19.83
2017-01-03T11:57:09.962Z,19.97
2017-01-03T11:58:19.012Z,19.91
2017-01-03T11:59:28.003Z,19.92
2017-01-03T12:00:37.009Z,19.94
2017-01-03T12:01:45.990Z,19.98
2017-01-03T12:02:55.005Z,20
2017-01-03T12:04:03.978Z,19.94
2017-01-03T12:05:12.963Z,19.92
2017-01-03T12:06:21.934Z,19.92
2017-01-03T12:07:30.913Z,19.92
2017-01-03T12:08:41.328Z,19.92
2017-01-03T12:09:50.343Z,20
2017-01-03T12:10:59.323Z,19.97
2017-01-03T12:12:09.337Z,19.95
2017-01-03T12:13:18.342Z,20.15
2017-01-03T12:14:27.321Z,20.04
2017-01-03T12:15:36.310Z,20.06
2017-01-03T12:16:45.294Z,20.07
2017-01-03T12:17:54.266Z,20.06
2017-01-03T12:19:03.257Z,20.09
2017-01-03T12:20:12.246Z,20
2017-01-03T12:21:21.231Z,20.09
2017-01-03T12:22:30.213Z,20.12
2017-01-03T12:23:39.202Z,20.13
2017-01-03T12:24:48.178Z,20.15
2017-01-03T12:25:57.152Z,20.1
2017-01-03T12:27:06.140Z,20.15
2017-01-03T12:28:15.120Z,20.12
2017-01-03T12:29:24.090Z,20.06
2017-01-03T12:30:33.080Z,20.09
2017-01-03T12:31:42.058Z,20.09
2017-01-03T12:32:51.036Z,20.09
2017-01-03T12:34:00.015Z,20.16
2017-01-03T12:35:09.005Z,20.16
2017-01-03T12:36:17.980Z,20.13
2017-01-03T12:37:26.960Z,20.12
2017-01-03T12:38:35.952Z,20.15
2017-01-03T12:39:44.916Z,20.06
2017-01-03T12:40:53.902Z,20.12
2017-01-03T12:42:02.888Z,20.07
2017-01-03T12:43:11.874Z,20.04
2017-01-03T12:44:20.860Z,20.1
2017-01-03T12:45:29.842Z,19.98
2017-01-03T12:46:38.831Z,20.04
2017-01-03T12:47:47.825Z,20.02
2017-01-03T12:48:56.806Z,20
2017-01-03T12:50:05.779Z,20.12
2017-01-03T12:51:14.764Z,20.06
2017-01-03T12:52:23.750Z,20.07
2017-01-03T12:53:32.729Z,20.07
2017-01-03T12:54:41.740Z,20.1
2017-01-03T12:55:50.719Z,20.01
2017-01-03T12:56:59.704Z,20.1
2017-01-03T12:58:08.693Z,20.07
2017-01-03T12:59:17.670Z,20.07
2017-01-03T13:00:26.644Z,20.04
2017-01-03T13:01:35.609Z,20.01
2017-01-03T13:02:44.604Z,20.07
2017-01-03T13:03:53.573Z,20.06
2017-01-03T13:05:02.563Z,20.02
2017-01-03T13:06:11.534Z,20.06
2017-01-03T13:07:20.512Z,20.1
2017-01-03T13:08:29.487Z,20.06
2017-01-03T13:09:38.473Z,20
2017-01-03T13:10:47.447Z,20.07
2017-01-03T13:11:56.437Z,20.02
2017-01-03T13:13:05.440Z,20.06
2017-01-03T13:14:14.433Z,19.97
2017-01-03T13:15:23.407Z,20.07
2017-01-03T13:16:32.381Z,20.06
2017-01-03T13:17:41.365Z,20.04
2017-01-03T13:18:50.341Z,20.04
2017-01-03T13:19:59.314Z,20.07
2017-01-03T13:21:08.300Z,20
2017-01-03T13:22:17.288Z,20.06
2017-01-03T13:23:26.273Z,20.06
2017-01-03T13:24:35.253Z,20.07
2017-01-03T13:25:44.229Z,20.09
2017-01-03T13:26:53.201Z,20.07
2017-01-03T13:28:02.191Z,20.07
2017-01-03T13:29:11.208Z,20.1
2017-01-03T13:30:20.184Z,20.12
2017-01-03T13:31:29.173Z,20.1
2017-01-03T13:32:38.164Z,20.02
2017-01-03T13:33:47.145Z,20.06
2017-01-03T13:34:56.146Z,20.02
2017-01-03T13:36:05.130Z,20.12
2017-01-03T13:37:14.104Z,20.01
2017-01-03T13:38:23.074Z,20.06
2017-01-03T13:39:32.063Z,20.09
2017-01-03T13:40:41.042Z,20.09
2017-01-03T13:41:50.035Z,20.1
2017-01-03T13:42:59.012Z,20.13
2017-01-03T13:44:07.998Z,20.12
2017-01-03T13:45:16.979Z,20.09
2017-01-03T13:46:25.960Z,20.07
2017-01-03T13:47:34.943Z,20.1
2017-01-03T13:48:43.933Z,20.12
2017-01-03T13:49:52.920Z,20.13
2017-01-03T13:51:01.896Z,20.07
2017-01-03T13:52:10.883Z,20.15
2017-01-03T13:53:19.887Z,20.1
2017-01-03T13:54:28.855Z,20.1
2017-01-03T13:55:37.844Z,20.17
2017-01-03T13:56:46.814Z,20.17
2017-01-03T13:57:55.801Z,20.13
2017-01-03T13:59:04.781Z,20.17
2017-01-03T14:00:13.780Z,20.12
2017-01-03T14:01:22.761Z,20.1
2017-01-03T14:02:31.751Z,20.13
2017-01-03T14:03:40.732Z,20.13
2017-01-03T14:04:49.705Z,20.15
2017-01-03T14:05:58.682Z,20.17
2017-01-03T14:07:07.673Z,20.17
2017-01-03T14:08:16.655Z,20.15
2017-01-03T14:09:25.643Z,20.15
2017-01-03T14:10:34.617Z,20.2
2017-01-03T14:11:43.596Z,20.13
2017-01-03T14:12:52.564Z,20.17
2017-01-03T14:14:01.545Z,20.13
2017-01-03T14:15:10.519Z,20.17
2017-01-03T14:16:19.494Z,20.17
2017-01-03T14:17:28.894Z,20.12
2017-01-03T14:18:37.872Z,20.19
2017-01-03T14:19:46.857Z,20.17
2017-01-03T14:20:55.835Z,20.16
2017-01-03T14:22:05.223Z,20.13
2017-01-03T14:23:14.207Z,20.13
2017-01-03T14:24:23.183Z,20.17
2017-01-03T14:25:32.177Z,20.16
2017-01-03T14:26:41.157Z,20.2
2017-01-03T14:27:50.137Z,20.17
2017-01-03T14:28:59.133Z,20.13
2017-01-03T14:30:08.110Z,20.19
2017-01-03T14:31:17.101Z,20.15
2017-01-03T14:32:26.083Z,20.19
2017-01-03T14:33:35.055Z,20.13
2017-01-03T14:34:44.037Z,20.17
2017-01-03T14:35:53.022Z,20.15
2017-01-03T14:37:02.006Z,20.17
2017-01-03T14:38:10.989Z,20.13
2017-01-03T14:39:20.021Z,20.16
2017-01-03T14:40:28.988Z,20.16
2017-01-03T14:41:37.972Z,20.17
2017-01-03T14:42:46.964Z,20.15
2017-01-03T14:43:55.944Z,20.15
2017-01-03T14:45:04.928Z,20.13
2017-01-03T14:46:13.915Z,20.19
2017-01-03T14:47:22.887Z,20.17
2017-01-03T14:48:31.892Z,20.16
2017-01-03T14:49:40.878Z,20.13
2017-01-03T14:50:49.852Z,20.16
2017-01-03T14:51:58.827Z,20.19
2017-01-03T14:53:07.821Z,20.13